sensor_id;sensor_type;location;lat;lon;timestamp;P1;durP1;ratioP1;P2;durP2;ratioP2
7361;SDS011;3721;44.490;11.220;2022-12-18T00:02:14;8.63;;;4.70;;
7361;SDS011;3721;44.490;11.220;2022-12-18T00:04:40;6.80;;;3.90;;
7361;SDS011;3721;44.490;11.220;2022-12-18T00:07:06;5.73;;;4.10;;
7361;SDS011;3721;44.490;11.220;2022-12-18T00:09:31;6.97;;;4.80;;
7361;SDS011;3721;44.490;11.220;2022-12-18T00:11:57;7.13;;;5.10;;
7361;SDS011;3721;44.490;11.220;2022-12-18T00:14:23;7.13;;;5.37;;
7361;SDS011;3721;44.490;11.220;2022-12-18T00:16:48;6.60;;;4.47;;
7361;SDS011;3721;44.490;11.220;2022-12-18T00:19:14;5.60;;;4.70;;
7361;SDS011;3721;44.490;11.220;2022-12-18T00:21:40;9.23;;;5.00;;
7361;SDS011;3721;44.490;11.220;2022-12-18T00:24:07;5.67;;;4.17;;
7361;SDS011;3721;44.490;11.220;2022-12-18T00:26:35;6.60;;;5.07;;
7361;SDS011;3721;44.490;11.220;2022-12-18T00:29:06;6.80;;;4.97;;
7361;SDS011;3721;44.490;11.220;2022-12-18T00:31:35;7.20;;;5.00;;
7361;SDS011;3721;44.490;11.220;2022-12-18T00:34:02;7.77;;;4.83;;
7361;SDS011;3721;44.490;11.220;2022-12-18T00:36:29;6.23;;;4.03;;
7361;SDS011;3721;44.490;11.220;2022-12-18T00:38:57;9.67;;;5.30;;
7361;SDS011;3721;44.490;11.220;2022-12-18T00:41:25;6.97;;;5.17;;
7361;SDS011;3721;44.490;11.220;2022-12-18T00:44:11;11.00;;;5.37;;
7361;SDS011;3721;44.490;11.220;2022-12-18T00:46:39;6.70;;;4.40;;
7361;SDS011;3721;44.490;11.220;2022-12-18T00:49:05;5.93;;;4.50;;
7361;SDS011;3721;44.490;11.220;2022-12-18T00:51:31;7.97;;;4.87;;
7361;SDS011;3721;44.490;11.220;2022-12-18T00:53:57;5.07;;;4.20;;
7361;SDS011;3721;44.490;11.220;2022-12-18T00:56:23;8.77;;;4.80;;
7361;SDS011;3721;44.490;11.220;2022-12-18T00:58:49;7.70;;;5.00;;
7361;SDS011;3721;44.490;11.220;2022-12-18T01:01:15;7.97;;;5.20;;
7361;SDS011;3721;44.490;11.220;2022-12-18T01:03:40;7.80;;;5.17;;
7361;SDS011;3721;44.490;11.220;2022-12-18T01:06:07;8.70;;;4.90;;
7361;SDS011;3721;44.490;11.220;2022-12-18T01:08:37;8.37;;;5.33;;
7361;SDS011;3721;44.490;11.220;2022-12-18T01:11:10;8.27;;;5.00;;
7361;SDS011;3721;44.490;11.220;2022-12-18T01:13:37;12.17;;;5.20;;
7361;SDS011;3721;44.490;11.220;2022-12-18T01:16:03;6.33;;;4.73;;
7361;SDS011;3721;44.490;11.220;2022-12-18T01:18:28;7.63;;;4.83;;
7361;SDS011;3721;44.490;11.220;2022-12-18T01:20:54;6.70;;;4.83;;
7361;SDS011;3721;44.490;11.220;2022-12-18T01:23:20;8.40;;;5.70;;
7361;SDS011;3721;44.490;11.220;2022-12-18T01:25:45;7.30;;;5.60;;
7361;SDS011;3721;44.490;11.220;2022-12-18T01:28:11;8.07;;;5.70;;
7361;SDS011;3721;44.490;11.220;2022-12-18T01:30:37;11.03;;;4.80;;
7361;SDS011;3721;44.490;11.220;2022-12-18T01:33:04;8.30;;;5.30;;
7361;SDS011;3721;44.490;11.220;2022-12-18T01:35:30;7.30;;;4.50;;
7361;SDS011;3721;44.490;11.220;2022-12-18T01:37:56;9.27;;;5.40;;
7361;SDS011;3721;44.490;11.220;2022-12-18T01:40:22;8.43;;;5.60;;
7361;SDS011;3721;44.490;11.220;2022-12-18T01:42:52;10.97;;;5.40;;
7361;SDS011;3721;44.490;11.220;2022-12-18T01:47:48;10.67;;;6.80;;
7361;SDS011;3721;44.490;11.220;2022-12-18T01:50:24;8.70;;;5.07;;
7361;SDS011;3721;44.490;11.220;2022-12-18T01:53:07;6.97;;;5.23;;
7361;SDS011;3721;44.490;11.220;2022-12-18T01:55:40;8.70;;;6.03;;
7361;SDS011;3721;44.490;11.220;2022-12-18T01:58:13;11.63;;;5.30;;
7361;SDS011;3721;44.490;11.220;2022-12-18T02:00:39;8.70;;;6.03;;
7361;SDS011;3721;44.490;11.220;2022-12-18T02:03:05;7.47;;;5.53;;
7361;SDS011;3721;44.490;11.220;2022-12-18T02:05:44;11.23;;;5.90;;
7361;SDS011;3721;44.490;11.220;2022-12-18T02:11:02;8.50;;;5.60;;
7361;SDS011;3721;44.490;11.220;2022-12-18T02:28:18;7.37;;;5.47;;
7361;SDS011;3721;44.490;11.220;2022-12-18T02:30:47;8.90;;;5.83;;
7361;SDS011;3721;44.490;11.220;2022-12-18T02:33:15;8.43;;;5.17;;
7361;SDS011;3721;44.490;11.220;2022-12-18T02:35:42;7.10;;;5.33;;
7361;SDS011;3721;44.490;11.220;2022-12-18T02:38:10;10.00;;;6.20;;
7361;SDS011;3721;44.490;11.220;2022-12-18T02:40:38;8.70;;;6.20;;
7361;SDS011;3721;44.490;11.220;2022-12-18T02:43:09;9.47;;;5.20;;
7361;SDS011;3721;44.490;11.220;2022-12-18T02:45:45;7.10;;;5.00;;
7361;SDS011;3721;44.490;11.220;2022-12-18T02:48:12;8.40;;;5.87;;
7361;SDS011;3721;44.490;11.220;2022-12-18T02:50:40;7.20;;;5.20;;
7361;SDS011;3721;44.490;11.220;2022-12-18T02:53:17;8.37;;;5.80;;
7361;SDS011;3721;44.490;11.220;2022-12-18T02:58:41;7.40;;;5.77;;
7361;SDS011;3721;44.490;11.220;2022-12-18T03:01:38;7.83;;;5.40;;
7361;SDS011;3721;44.490;11.220;2022-12-18T03:06:58;8.30;;;5.60;;
7361;SDS011;3721;44.490;11.220;2022-12-18T03:09:29;8.27;;;5.80;;
7361;SDS011;3721;44.490;11.220;2022-12-18T03:14:58;7.70;;;5.80;;
7361;SDS011;3721;44.490;11.220;2022-12-18T03:17:33;7.77;;;5.43;;
7361;SDS011;3721;44.490;11.220;2022-12-18T03:20:02;9.00;;;5.90;;
7361;SDS011;3721;44.490;11.220;2022-12-18T03:22:35;8.23;;;5.90;;
7361;SDS011;3721;44.490;11.220;2022-12-18T03:25:04;10.20;;;5.30;;
7361;SDS011;3721;44.490;11.220;2022-12-18T03:27:32;7.73;;;5.10;;
7361;SDS011;3721;44.490;11.220;2022-12-18T03:30:04;9.27;;;5.30;;
7361;SDS011;3721;44.490;11.220;2022-12-18T03:32:35;8.53;;;5.40;;
7361;SDS011;3721;44.490;11.220;2022-12-18T03:35:20;8.33;;;5.40;;
7361;SDS011;3721;44.490;11.220;2022-12-18T03:37:49;8.50;;;5.60;;
7361;SDS011;3721;44.490;11.220;2022-12-18T03:40:14;9.23;;;5.30;;
7361;SDS011;3721;44.490;11.220;2022-12-18T03:42:48;8.00;;;4.93;;
7361;SDS011;3721;44.490;11.220;2022-12-18T03:45:27;8.60;;;5.53;;
7361;SDS011;3721;44.490;11.220;2022-12-18T03:53:58;11.00;;;5.90;;
7361;SDS011;3721;44.490;11.220;2022-12-18T03:56:29;7.90;;;5.30;;
7361;SDS011;3721;44.490;11.220;2022-12-18T03:58:57;8.77;;;5.50;;
7361;SDS011;3721;44.490;11.220;2022-12-18T04:01:28;7.03;;;5.67;;
7361;SDS011;3721;44.490;11.220;2022-12-18T04:03:58;7.53;;;5.67;;
7361;SDS011;3721;44.490;11.220;2022-12-18T04:06:26;7.60;;;5.47;;
7361;SDS011;3721;44.490;11.220;2022-12-18T04:08:54;6.97;;;5.33;;
7361;SDS011;3721;44.490;11.220;2022-12-18T04:11:19;8.47;;;5.73;;
7361;SDS011;3721;44.490;11.220;2022-12-18T04:13:45;9.40;;;6.00;;
7361;SDS011;3721;44.490;11.220;2022-12-18T04:16:11;8.30;;;5.60;;
7361;SDS011;3721;44.490;11.220;2022-12-18T04:18:36;7.27;;;5.00;;
7361;SDS011;3721;44.490;11.220;2022-12-18T04:21:02;7.67;;;5.10;;
7361;SDS011;3721;44.490;11.220;2022-12-18T04:23:28;8.67;;;5.70;;
7361;SDS011;3721;44.490;11.220;2022-12-18T04:25:54;7.70;;;5.70;;
7361;SDS011;3721;44.490;11.220;2022-12-18T04:28:20;8.47;;;6.20;;
7361;SDS011;3721;44.490;11.220;2022-12-18T04:30:45;8.30;;;5.30;;
7361;SDS011;3721;44.490;11.220;2022-12-18T04:33:11;8.53;;;6.20;;
7361;SDS011;3721;44.490;11.220;2022-12-18T04:35:38;7.40;;;6.03;;
7361;SDS011;3721;44.490;11.220;2022-12-18T04:38:05;8.77;;;5.60;;
7361;SDS011;3721;44.490;11.220;2022-12-18T04:40:33;8.87;;;5.83;;
7361;SDS011;3721;44.490;11.220;2022-12-18T04:42:59;8.97;;;6.10;;
7361;SDS011;3721;44.490;11.220;2022-12-18T04:45:24;9.03;;;5.67;;
7361;SDS011;3721;44.490;11.220;2022-12-18T04:47:50;7.93;;;5.53;;
7361;SDS011;3721;44.490;11.220;2022-12-18T04:50:16;6.67;;;4.90;;
7361;SDS011;3721;44.490;11.220;2022-12-18T04:52:41;9.93;;;5.57;;
7361;SDS011;3721;44.490;11.220;2022-12-18T04:55:07;7.40;;;5.27;;
7361;SDS011;3721;44.490;11.220;2022-12-18T04:57:33;8.83;;;5.97;;
7361;SDS011;3721;44.490;11.220;2022-12-18T04:59:58;9.10;;;5.30;;
7361;SDS011;3721;44.490;11.220;2022-12-18T05:02:24;7.43;;;5.30;;
7361;SDS011;3721;44.490;11.220;2022-12-18T05:04:50;10.80;;;6.40;;
7361;SDS011;3721;44.490;11.220;2022-12-18T05:07:15;7.63;;;5.17;;
7361;SDS011;3721;44.490;11.220;2022-12-18T05:09:41;8.07;;;5.90;;
7361;SDS011;3721;44.490;11.220;2022-12-18T05:12:07;7.00;;;5.10;;
7361;SDS011;3721;44.490;11.220;2022-12-18T05:14:32;7.83;;;5.10;;
7361;SDS011;3721;44.490;11.220;2022-12-18T05:16:58;7.83;;;5.10;;
7361;SDS011;3721;44.490;11.220;2022-12-18T05:19:23;8.50;;;5.43;;
7361;SDS011;3721;44.490;11.220;2022-12-18T05:21:49;9.23;;;5.97;;
7361;SDS011;3721;44.490;11.220;2022-12-18T05:24:15;6.93;;;5.60;;
7361;SDS011;3721;44.490;11.220;2022-12-18T05:26:40;7.70;;;5.50;;
7361;SDS011;3721;44.490;11.220;2022-12-18T05:29:06;8.67;;;5.73;;
7361;SDS011;3721;44.490;11.220;2022-12-18T05:31:32;10.10;;;5.50;;
7361;SDS011;3721;44.490;11.220;2022-12-18T05:33:57;7.90;;;5.43;;
7361;SDS011;3721;44.490;11.220;2022-12-18T05:36:23;7.60;;;5.80;;
7361;SDS011;3721;44.490;11.220;2022-12-18T05:38:48;10.73;;;5.60;;
7361;SDS011;3721;44.490;11.220;2022-12-18T05:41:14;8.30;;;5.67;;
7361;SDS011;3721;44.490;11.220;2022-12-18T05:43:40;9.90;;;6.33;;
7361;SDS011;3721;44.490;11.220;2022-12-18T05:46:07;8.30;;;6.07;;
7361;SDS011;3721;44.490;11.220;2022-12-18T05:48:36;6.67;;;5.10;;
7361;SDS011;3721;44.490;11.220;2022-12-18T05:51:05;7.57;;;5.30;;
7361;SDS011;3721;44.490;11.220;2022-12-18T05:53:32;9.70;;;5.30;;
7361;SDS011;3721;44.490;11.220;2022-12-18T05:56:03;8.13;;;5.47;;
7361;SDS011;3721;44.490;11.220;2022-12-18T05:58:31;7.03;;;5.30;;
7361;SDS011;3721;44.490;11.220;2022-12-18T06:00:57;8.80;;;5.97;;
7361;SDS011;3721;44.490;11.220;2022-12-18T06:03:33;7.80;;;5.00;;
7361;SDS011;3721;44.490;11.220;2022-12-18T06:05:59;8.93;;;5.37;;
7361;SDS011;3721;44.490;11.220;2022-12-18T06:08:24;7.30;;;5.30;;
7361;SDS011;3721;44.490;11.220;2022-12-18T06:10:50;8.90;;;6.13;;
7361;SDS011;3721;44.490;11.220;2022-12-18T06:13:17;7.73;;;5.40;;
7361;SDS011;3721;44.490;11.220;2022-12-18T06:15:43;6.87;;;4.87;;
7361;SDS011;3721;44.490;11.220;2022-12-18T06:18:09;7.83;;;5.23;;
7361;SDS011;3721;44.490;11.220;2022-12-18T06:20:34;9.83;;;6.00;;
7361;SDS011;3721;44.490;11.220;2022-12-18T06:23:01;8.20;;;5.80;;
7361;SDS011;3721;44.490;11.220;2022-12-18T06:25:27;7.47;;;4.83;;
7361;SDS011;3721;44.490;11.220;2022-12-18T06:27:53;10.33;;;6.07;;
7361;SDS011;3721;44.490;11.220;2022-12-18T06:30:19;7.60;;;5.33;;
7361;SDS011;3721;44.490;11.220;2022-12-18T06:32:45;9.00;;;6.33;;
7361;SDS011;3721;44.490;11.220;2022-12-18T06:35:13;10.30;;;6.70;;
7361;SDS011;3721;44.490;11.220;2022-12-18T06:37:39;9.80;;;6.97;;
7361;SDS011;3721;44.490;11.220;2022-12-18T06:40:05;8.30;;;6.70;;
7361;SDS011;3721;44.490;11.220;2022-12-18T06:42:31;9.40;;;6.27;;
7361;SDS011;3721;44.490;11.220;2022-12-18T06:44:57;9.00;;;7.17;;
7361;SDS011;3721;44.490;11.220;2022-12-18T06:47:22;11.73;;;6.77;;
7361;SDS011;3721;44.490;11.220;2022-12-18T06:49:48;7.20;;;5.30;;
7361;SDS011;3721;44.490;11.220;2022-12-18T06:52:15;10.60;;;7.23;;
7361;SDS011;3721;44.490;11.220;2022-12-18T06:54:41;8.43;;;6.30;;
7361;SDS011;3721;44.490;11.220;2022-12-18T06:57:06;9.83;;;6.30;;
7361;SDS011;3721;44.490;11.220;2022-12-18T06:59:32;7.20;;;5.43;;
7361;SDS011;3721;44.490;11.220;2022-12-18T07:01:58;7.33;;;5.20;;
7361;SDS011;3721;44.490;11.220;2022-12-18T07:04:29;7.57;;;5.10;;
7361;SDS011;3721;44.490;11.220;2022-12-18T07:06:55;10.37;;;6.07;;
7361;SDS011;3721;44.490;11.220;2022-12-18T07:09:22;8.40;;;5.03;;
7361;SDS011;3721;44.490;11.220;2022-12-18T07:11:48;7.30;;;5.10;;
7361;SDS011;3721;44.490;11.220;2022-12-18T07:14:14;7.53;;;5.63;;
7361;SDS011;3721;44.490;11.220;2022-12-18T07:16:39;7.83;;;5.10;;
7361;SDS011;3721;44.490;11.220;2022-12-18T07:19:05;7.77;;;5.13;;
7361;SDS011;3721;44.490;11.220;2022-12-18T07:21:31;7.77;;;5.07;;
7361;SDS011;3721;44.490;11.220;2022-12-18T07:23:57;8.67;;;5.93;;
7361;SDS011;3721;44.490;11.220;2022-12-18T07:26:22;9.00;;;5.57;;
7361;SDS011;3721;44.490;11.220;2022-12-18T07:28:48;7.50;;;5.00;;
7361;SDS011;3721;44.490;11.220;2022-12-18T07:31:16;13.23;;;5.90;;
7361;SDS011;3721;44.490;11.220;2022-12-18T07:33:42;7.33;;;5.23;;
7361;SDS011;3721;44.490;11.220;2022-12-18T07:36:09;7.50;;;4.87;;
7361;SDS011;3721;44.490;11.220;2022-12-18T07:38:36;8.67;;;5.83;;
7361;SDS011;3721;44.490;11.220;2022-12-18T07:41:02;8.90;;;5.97;;
7361;SDS011;3721;44.490;11.220;2022-12-18T07:43:29;8.17;;;5.23;;
7361;SDS011;3721;44.490;11.220;2022-12-18T07:45:55;10.27;;;6.87;;
7361;SDS011;3721;44.490;11.220;2022-12-18T07:48:21;7.70;;;5.67;;
7361;SDS011;3721;44.490;11.220;2022-12-18T07:50:47;9.27;;;6.70;;
7361;SDS011;3721;44.490;11.220;2022-12-18T07:53:13;9.83;;;6.47;;
7361;SDS011;3721;44.490;11.220;2022-12-18T07:55:39;10.30;;;6.30;;
7361;SDS011;3721;44.490;11.220;2022-12-18T07:58:06;9.67;;;6.37;;
7361;SDS011;3721;44.490;11.220;2022-12-18T08:00:32;8.83;;;6.27;;
7361;SDS011;3721;44.490;11.220;2022-12-18T08:02:59;8.93;;;5.47;;
7361;SDS011;3721;44.490;11.220;2022-12-18T08:05:24;9.30;;;6.50;;
7361;SDS011;3721;44.490;11.220;2022-12-18T08:07:50;9.83;;;6.00;;
7361;SDS011;3721;44.490;11.220;2022-12-18T08:10:16;8.17;;;6.40;;
7361;SDS011;3721;44.490;11.220;2022-12-18T08:12:42;13.50;;;6.00;;
7361;SDS011;3721;44.490;11.220;2022-12-18T08:15:08;10.27;;;6.93;;
7361;SDS011;3721;44.490;11.220;2022-12-18T08:17:34;8.60;;;6.57;;
7361;SDS011;3721;44.490;11.220;2022-12-18T08:19:59;10.40;;;7.10;;
7361;SDS011;3721;44.490;11.220;2022-12-18T08:22:25;10.07;;;6.97;;
7361;SDS011;3721;44.490;11.220;2022-12-18T08:24:51;11.13;;;6.97;;
7361;SDS011;3721;44.490;11.220;2022-12-18T08:27:16;9.40;;;6.93;;
7361;SDS011;3721;44.490;11.220;2022-12-18T08:29:42;13.10;;;7.23;;
7361;SDS011;3721;44.490;11.220;2022-12-18T08:32:08;11.67;;;7.20;;
7361;SDS011;3721;44.490;11.220;2022-12-18T08:34:33;11.63;;;7.40;;
7361;SDS011;3721;44.490;11.220;2022-12-18T08:36:59;10.40;;;7.53;;
7361;SDS011;3721;44.490;11.220;2022-12-18T08:39:25;9.63;;;7.13;;
7361;SDS011;3721;44.490;11.220;2022-12-18T08:41:50;8.00;;;6.07;;
7361;SDS011;3721;44.490;11.220;2022-12-18T08:44:34;10.57;;;7.00;;
7361;SDS011;3721;44.490;11.220;2022-12-18T08:47:03;10.10;;;6.87;;
7361;SDS011;3721;44.490;11.220;2022-12-18T08:49:30;11.30;;;7.90;;
7361;SDS011;3721;44.490;11.220;2022-12-18T08:51:56;11.80;;;7.63;;
7361;SDS011;3721;44.490;11.220;2022-12-18T08:54:22;12.93;;;7.23;;
7361;SDS011;3721;44.490;11.220;2022-12-18T08:56:49;12.77;;;8.53;;
7361;SDS011;3721;44.490;11.220;2022-12-18T08:59:18;9.27;;;7.23;;
7361;SDS011;3721;44.490;11.220;2022-12-18T09:01:44;12.80;;;7.50;;
7361;SDS011;3721;44.490;11.220;2022-12-18T09:04:11;11.17;;;7.10;;
7361;SDS011;3721;44.490;11.220;2022-12-18T09:06:37;10.00;;;6.90;;
7361;SDS011;3721;44.490;11.220;2022-12-18T09:09:03;10.03;;;6.53;;
7361;SDS011;3721;44.490;11.220;2022-12-18T09:11:30;9.47;;;6.90;;
7361;SDS011;3721;44.490;11.220;2022-12-18T09:13:57;13.07;;;7.97;;
7361;SDS011;3721;44.490;11.220;2022-12-18T09:16:25;7.80;;;5.50;;
7361;SDS011;3721;44.490;11.220;2022-12-18T09:18:53;9.20;;;6.13;;
7361;SDS011;3721;44.490;11.220;2022-12-18T09:21:24;9.63;;;6.80;;
7361;SDS011;3721;44.490;11.220;2022-12-18T09:23:51;9.77;;;6.10;;
7361;SDS011;3721;44.490;11.220;2022-12-18T09:26:21;7.40;;;5.70;;
7361;SDS011;3721;44.490;11.220;2022-12-18T09:28:47;9.60;;;6.60;;
7361;SDS011;3721;44.490;11.220;2022-12-18T09:31:13;8.90;;;6.03;;
7361;SDS011;3721;44.490;11.220;2022-12-18T09:33:40;8.33;;;5.50;;
7361;SDS011;3721;44.490;11.220;2022-12-18T09:36:06;7.83;;;5.67;;
7361;SDS011;3721;44.490;11.220;2022-12-18T09:38:34;9.70;;;6.17;;
7361;SDS011;3721;44.490;11.220;2022-12-18T09:41:02;9.77;;;6.60;;
7361;SDS011;3721;44.490;11.220;2022-12-18T09:43:42;9.40;;;6.40;;
7361;SDS011;3721;44.490;11.220;2022-12-18T09:46:15;8.77;;;5.57;;
7361;SDS011;3721;44.490;11.220;2022-12-18T09:48:46;7.47;;;5.57;;
7361;SDS011;3721;44.490;11.220;2022-12-18T09:51:15;8.40;;;5.53;;
7361;SDS011;3721;44.490;11.220;2022-12-18T09:53:47;13.63;;;6.23;;
7361;SDS011;3721;44.490;11.220;2022-12-18T09:56:19;10.33;;;6.73;;
7361;SDS011;3721;44.490;11.220;2022-12-18T09:59:00;11.40;;;7.03;;
7361;SDS011;3721;44.490;11.220;2022-12-18T10:01:28;9.03;;;5.77;;
7361;SDS011;3721;44.490;11.220;2022-12-18T10:03:55;11.73;;;5.90;;
7361;SDS011;3721;44.490;11.220;2022-12-18T10:06:27;8.30;;;5.80;;
7361;SDS011;3721;44.490;11.220;2022-12-18T10:11:34;9.67;;;6.70;;
7361;SDS011;3721;44.490;11.220;2022-12-18T10:14:32;11.10;;;6.50;;
7361;SDS011;3721;44.490;11.220;2022-12-18T10:17:30;12.93;;;6.17;;
7361;SDS011;3721;44.490;11.220;2022-12-18T10:20:13;9.07;;;6.00;;
7361;SDS011;3721;44.490;11.220;2022-12-18T10:25:32;9.63;;;6.73;;
7361;SDS011;3721;44.490;11.220;2022-12-18T10:28:08;9.37;;;6.00;;
7361;SDS011;3721;44.490;11.220;2022-12-18T10:30:38;9.63;;;5.73;;
7361;SDS011;3721;44.490;11.220;2022-12-18T10:33:05;8.93;;;6.30;;
7361;SDS011;3721;44.490;11.220;2022-12-18T10:35:31;10.03;;;6.40;;
7361;SDS011;3721;44.490;11.220;2022-12-18T10:38:01;9.73;;;6.37;;
7361;SDS011;3721;44.490;11.220;2022-12-18T10:40:28;11.80;;;6.20;;
7361;SDS011;3721;44.490;11.220;2022-12-18T10:44:09;9.80;;;6.00;;
7361;SDS011;3721;44.490;11.220;2022-12-18T10:48:33;10.80;;;6.30;;
7361;SDS011;3721;44.490;11.220;2022-12-18T10:51:01;10.70;;;6.50;;
7361;SDS011;3721;44.490;11.220;2022-12-18T10:53:29;13.63;;;6.13;;
7361;SDS011;3721;44.490;11.220;2022-12-18T10:56:01;10.23;;;6.37;;
7361;SDS011;3721;44.490;11.220;2022-12-18T10:58:30;8.50;;;6.40;;
7361;SDS011;3721;44.490;11.220;2022-12-18T11:01:02;11.47;;;6.73;;
7361;SDS011;3721;44.490;11.220;2022-12-18T11:03:40;11.77;;;6.90;;
7361;SDS011;3721;44.490;11.220;2022-12-18T11:06:14;10.53;;;6.70;;
7361;SDS011;3721;44.490;11.220;2022-12-18T11:08:57;9.40;;;6.27;;
7361;SDS011;3721;44.490;11.220;2022-12-18T11:11:28;9.07;;;6.07;;
7361;SDS011;3721;44.490;11.220;2022-12-18T11:14:03;10.13;;;6.73;;
7361;SDS011;3721;44.490;11.220;2022-12-18T11:16:30;7.57;;;5.73;;
7361;SDS011;3721;44.490;11.220;2022-12-18T11:21:46;10.33;;;6.87;;
7361;SDS011;3721;44.490;11.220;2022-12-18T11:24:17;9.23;;;5.80;;
7361;SDS011;3721;44.490;11.220;2022-12-18T11:27:05;10.63;;;7.00;;
7361;SDS011;3721;44.490;11.220;2022-12-18T11:29:40;9.80;;;6.57;;
7361;SDS011;3721;44.490;11.220;2022-12-18T11:32:20;9.67;;;6.47;;
7361;SDS011;3721;44.490;11.220;2022-12-18T11:34:55;13.77;;;7.87;;
7361;SDS011;3721;44.490;11.220;2022-12-18T11:37:29;9.90;;;6.77;;
7361;SDS011;3721;44.490;11.220;2022-12-18T11:40:01;10.97;;;6.20;;
7361;SDS011;3721;44.490;11.220;2022-12-18T11:47:49;8.17;;;6.20;;
7361;SDS011;3721;44.490;11.220;2022-12-18T11:50:18;13.00;;;6.63;;
7361;SDS011;3721;44.490;11.220;2022-12-18T11:52:47;9.70;;;6.37;;
7361;SDS011;3721;44.490;11.220;2022-12-18T11:55:20;9.50;;;6.93;;
7361;SDS011;3721;44.490;11.220;2022-12-18T11:58:05;9.60;;;6.40;;
7361;SDS011;3721;44.490;11.220;2022-12-18T12:00:53;9.57;;;6.43;;
7361;SDS011;3721;44.490;11.220;2022-12-18T12:22:52;9.83;;;6.80;;
7361;SDS011;3721;44.490;11.220;2022-12-18T12:33:33;8.90;;;5.87;;
7361;SDS011;3721;44.490;11.220;2022-12-18T12:36:08;9.77;;;6.53;;
7361;SDS011;3721;44.490;11.220;2022-12-18T12:38:44;10.27;;;6.87;;
7361;SDS011;3721;44.490;11.220;2022-12-18T12:41:16;9.67;;;7.07;;
7361;SDS011;3721;44.490;11.220;2022-12-18T12:44:07;9.40;;;6.37;;
7361;SDS011;3721;44.490;11.220;2022-12-18T12:46:39;12.53;;;6.00;;
7361;SDS011;3721;44.490;11.220;2022-12-18T12:49:11;12.13;;;6.53;;
7361;SDS011;3721;44.490;11.220;2022-12-18T12:51:57;11.80;;;7.70;;
7361;SDS011;3721;44.490;11.220;2022-12-18T12:54:37;14.00;;;7.30;;
7361;SDS011;3721;44.490;11.220;2022-12-18T13:02:33;10.40;;;6.57;;
7361;SDS011;3721;44.490;11.220;2022-12-18T13:05:39;11.43;;;6.87;;
7361;SDS011;3721;44.490;11.220;2022-12-18T13:08:24;11.30;;;6.60;;
7361;SDS011;3721;44.490;11.220;2022-12-18T13:10:59;10.80;;;6.60;;
7361;SDS011;3721;44.490;11.220;2022-12-18T13:13:51;8.87;;;5.87;;
7361;SDS011;3721;44.490;11.220;2022-12-18T13:16:19;12.30;;;6.70;;
7361;SDS011;3721;44.490;11.220;2022-12-18T13:18:52;9.43;;;5.67;;
7361;SDS011;3721;44.490;11.220;2022-12-18T13:21:29;10.90;;;6.37;;
7361;SDS011;3721;44.490;11.220;2022-12-18T13:24:14;9.90;;;6.70;;
7361;SDS011;3721;44.490;11.220;2022-12-18T13:26:47;9.17;;;6.63;;
7361;SDS011;3721;44.490;11.220;2022-12-18T13:29:14;10.70;;;6.90;;
7361;SDS011;3721;44.490;11.220;2022-12-18T13:32:18;11.50;;;7.10;;
7361;SDS011;3721;44.490;11.220;2022-12-18T13:34:51;11.70;;;7.00;;
7361;SDS011;3721;44.490;11.220;2022-12-18T13:37:43;11.87;;;7.40;;
7361;SDS011;3721;44.490;11.220;2022-12-18T13:40:59;11.90;;;7.60;;
7361;SDS011;3721;44.490;11.220;2022-12-18T13:45:48;11.47;;;7.83;;
7361;SDS011;3721;44.490;11.220;2022-12-18T13:48:16;10.90;;;7.50;;
7361;SDS011;3721;44.490;11.220;2022-12-18T13:50:47;10.00;;;7.80;;
7361;SDS011;3721;44.490;11.220;2022-12-18T13:53:25;12.03;;;7.30;;
7361;SDS011;3721;44.490;11.220;2022-12-18T13:55:53;11.37;;;8.20;;
7361;SDS011;3721;44.490;11.220;2022-12-18T13:58:20;11.37;;;8.00;;
7361;SDS011;3721;44.490;11.220;2022-12-18T14:00:46;12.00;;;8.17;;
7361;SDS011;3721;44.490;11.220;2022-12-18T14:03:19;13.70;;;8.80;;
7361;SDS011;3721;44.490;11.220;2022-12-18T14:06:08;12.13;;;8.33;;
7361;SDS011;3721;44.490;11.220;2022-12-18T14:08:41;12.90;;;7.90;;
7361;SDS011;3721;44.490;11.220;2022-12-18T14:11:17;12.00;;;8.57;;
7361;SDS011;3721;44.490;11.220;2022-12-18T14:13:46;13.60;;;9.07;;
7361;SDS011;3721;44.490;11.220;2022-12-18T14:16:13;13.47;;;8.00;;
7361;SDS011;3721;44.490;11.220;2022-12-18T14:18:43;12.93;;;8.73;;
7361;SDS011;3721;44.490;11.220;2022-12-18T14:21:26;13.13;;;8.60;;
7361;SDS011;3721;44.490;11.220;2022-12-18T14:26:43;14.63;;;8.17;;
7361;SDS011;3721;44.490;11.220;2022-12-18T14:29:23;13.23;;;8.67;;
7361;SDS011;3721;44.490;11.220;2022-12-18T14:34:39;13.50;;;8.43;;
7361;SDS011;3721;44.490;11.220;2022-12-18T14:37:05;12.90;;;8.80;;
7361;SDS011;3721;44.490;11.220;2022-12-18T14:39:34;13.00;;;8.67;;
7361;SDS011;3721;44.490;11.220;2022-12-18T14:42:00;12.43;;;7.50;;
7361;SDS011;3721;44.490;11.220;2022-12-18T14:44:25;15.63;;;8.47;;
7361;SDS011;3721;44.490;11.220;2022-12-18T14:46:51;14.23;;;8.97;;
7361;SDS011;3721;44.490;11.220;2022-12-18T14:49:29;13.43;;;8.70;;
7361;SDS011;3721;44.490;11.220;2022-12-18T14:52:00;14.90;;;9.50;;
7361;SDS011;3721;44.490;11.220;2022-12-18T14:54:31;12.37;;;9.50;;
7361;SDS011;3721;44.490;11.220;2022-12-18T14:57:04;11.10;;;8.13;;
7361;SDS011;3721;44.490;11.220;2022-12-18T14:59:39;13.90;;;9.07;;
7361;SDS011;3721;44.490;11.220;2022-12-18T15:04:47;12.80;;;8.00;;
7361;SDS011;3721;44.490;11.220;2022-12-18T15:07:24;14.47;;;9.77;;
7361;SDS011;3721;44.490;11.220;2022-12-18T15:15:01;14.30;;;9.30;;
7361;SDS011;3721;44.490;11.220;2022-12-18T15:17:27;16.50;;;9.37;;
7361;SDS011;3721;44.490;11.220;2022-12-18T15:20:03;15.10;;;9.40;;
7361;SDS011;3721;44.490;11.220;2022-12-18T15:22:35;16.90;;;9.63;;
7361;SDS011;3721;44.490;11.220;2022-12-18T15:25:02;13.83;;;9.27;;
7361;SDS011;3721;44.490;11.220;2022-12-18T15:27:45;14.47;;;8.63;;
7361;SDS011;3721;44.490;11.220;2022-12-18T15:32:41;13.10;;;8.70;;
7361;SDS011;3721;44.490;11.220;2022-12-18T15:37:41;12.10;;;7.67;;
7361;SDS011;3721;44.490;11.220;2022-12-18T15:40:29;14.03;;;8.97;;
7361;SDS011;3721;44.490;11.220;2022-12-18T15:42:53;13.47;;;7.70;;
7361;SDS011;3721;44.490;11.220;2022-12-18T15:45:38;13.60;;;8.30;;
7361;SDS011;3721;44.490;11.220;2022-12-18T15:48:10;18.70;;;8.60;;
7361;SDS011;3721;44.490;11.220;2022-12-18T15:50:46;13.00;;;7.60;;
7361;SDS011;3721;44.490;11.220;2022-12-18T15:53:12;17.10;;;9.17;;
7361;SDS011;3721;44.490;11.220;2022-12-18T15:55:37;17.40;;;9.83;;
7361;SDS011;3721;44.490;11.220;2022-12-18T15:58:21;16.23;;;9.87;;
7361;SDS011;3721;44.490;11.220;2022-12-18T16:00:47;13.17;;;8.20;;
7361;SDS011;3721;44.490;11.220;2022-12-18T16:03:13;12.77;;;9.27;;
7361;SDS011;3721;44.490;11.220;2022-12-18T16:05:38;13.20;;;8.33;;
7361;SDS011;3721;44.490;11.220;2022-12-18T16:08:04;17.40;;;9.10;;
7361;SDS011;3721;44.490;11.220;2022-12-18T16:10:30;13.10;;;8.90;;
7361;SDS011;3721;44.490;11.220;2022-12-18T16:12:56;13.63;;;8.60;;
7361;SDS011;3721;44.490;11.220;2022-12-18T16:15:21;12.67;;;8.50;;
7361;SDS011;3721;44.490;11.220;2022-12-18T16:17:47;12.57;;;8.53;;
7361;SDS011;3721;44.490;11.220;2022-12-18T16:20:17;14.40;;;8.60;;
7361;SDS011;3721;44.490;11.220;2022-12-18T16:22:45;14.63;;;9.07;;
7361;SDS011;3721;44.490;11.220;2022-12-18T16:25:16;14.43;;;8.67;;
7361;SDS011;3721;44.490;11.220;2022-12-18T16:27:44;17.90;;;8.80;;
7361;SDS011;3721;44.490;11.220;2022-12-18T16:30:16;13.83;;;8.53;;
7361;SDS011;3721;44.490;11.220;2022-12-18T16:32:44;17.03;;;10.77;;
7361;SDS011;3721;44.490;11.220;2022-12-18T16:35:13;14.17;;;9.90;;
7361;SDS011;3721;44.490;11.220;2022-12-18T16:37:40;12.37;;;8.97;;
7361;SDS011;3721;44.490;11.220;2022-12-18T16:40:07;16.67;;;11.10;;
7361;SDS011;3721;44.490;11.220;2022-12-18T16:42:35;14.23;;;9.17;;
7361;SDS011;3721;44.490;11.220;2022-12-18T16:45:02;18.40;;;9.73;;
7361;SDS011;3721;44.490;11.220;2022-12-18T16:47:28;18.93;;;10.93;;
7361;SDS011;3721;44.490;11.220;2022-12-18T16:49:54;16.80;;;10.67;;
7361;SDS011;3721;44.490;11.220;2022-12-18T16:52:21;19.57;;;11.37;;
7361;SDS011;3721;44.490;11.220;2022-12-18T16:54:46;14.27;;;9.10;;
7361;SDS011;3721;44.490;11.220;2022-12-18T16:57:13;17.60;;;11.03;;